Time;durP1;ratioP1;P1;durP2;ratioP2;P2;SDS_P1;SDS_P2;PMS_P1;PMS_P2;Temp;Humidity;BMP_temperature;BMP_pressure;BME280_temperature;BME280_humidity;BME280_pressure;Samples;Min_cycle;Max_cycle;Signal;HPM_P1;HPM_P2
2022/03/19 00:01:49;;;;;;;14.60;9.67;;;5.90;99.90;;;;;;4987725;28;20257;-62
2022/03/19 00:04:17;;;;;;;13.80;8.70;;;5.90;99.90;;;;;;4981037;28;20324;-62
2022/03/19 00:06:46;;;;;;;16.30;10.03;;;5.80;99.90;;;;;;4982511;28;20756;-63
2022/03/19 00:09:16;;;;;;;13.90;9.10;;;5.80;99.90;;;;;;4988276;28;20190;-62
2022/03/19 00:11:43;;;;;;;15.40;9.07;;;5.70;99.90;;;;;;4996944;28;20206;-63
2022/03/19 00:14:12;;;;;;;16.47;9.67;;;5.70;99.90;;;;;;4988238;28;20360;-63
2022/03/19 00:16:42;;;;;;;14.27;9.33;;;5.60;99.90;;;;;;4987590;28;20227;-64
2022/03/19 00:19:10;;;;;;;13.63;9.03;;;5.60;99.90;;;;;;4998160;28;20190;-63
2022/03/19 00:21:37;;;;;;;17.87;9.20;;;5.50;1.00;;;;;;4997208;28;20197;-63
2022/03/19 00:24:06;;;;;;;12.67;9.07;;;5.50;1.00;;;;;;4982871;28;20210;-64
2022/03/19 00:26:35;;;;;;;15.67;10.23;;;5.40;1.00;;;;;;4981294;28;20353;-64
2022/03/19 00:29:02;;;;;;;13.17;9.63;;;5.30;1.00;;;;;;4998774;28;20755;-64
2022/03/19 00:31:34;;;;;;;16.33;9.97;;;5.30;1.00;;;;;;4988912;28;20213;-64
2022/03/19 00:34:01;;;;;;;13.07;9.70;;;5.20;1.00;;;;;;4997803;28;20210;-63
2022/03/19 00:36:30;;;;;;;15.67;9.93;;;5.10;1.00;;;;;;4980394;28;20198;-63
2022/03/19 00:38:57;;;;;;;15.80;9.97;;;5.10;1.00;;;;;;5012199;28;20194;-63
2022/03/19 00:41:24;;;;;;;12.80;10.13;;;5.10;1.00;;;;;;4981546;28;20221;-63
2022/03/19 00:43:51;;;;;;;19.93;11.70;;;5.10;1.00;;;;;;4981319;28;20241;-63
2022/03/19 00:46:20;;;;;;;21.67;10.97;;;5.20;1.00;;;;;;4996426;28;20193;-63
2022/03/19 00:48:48;;;;;;;15.23;10.67;;;5.20;1.00;;;;;;4994994;28;20645;-63
2022/03/19 00:51:17;;;;;;;13.77;10.40;;;5.40;1.00;;;;;;4985875;28;20214;-63
2022/03/19 00:53:44;;;;;;;19.60;11.53;;;5.50;1.00;;;;;;4982072;28;20269;-62
2022/03/19 00:56:11;;;;;;;22.90;11.87;;;5.60;1.00;;;;;;4981432;28;22065;-61
2022/03/19 00:58:38;;;;;;;25.33;10.90;;;5.60;1.00;;;;;;4981543;28;20240;-61
2022/03/19 01:01:05;;;;;;;13.37;9.93;;;5.70;1.00;;;;;;4997263;28;20213;-61
2022/03/19 01:03:32;;;;;;;16.97;10.23;;;5.60;1.00;;;;;;4988721;28;20193;-62
2022/03/19 01:06:01;;;;;;;17.77;9.77;;;5.60;1.00;;;;;;4996865;28;20618;-62
2022/03/19 01:08:28;;;;;;;17.43;10.43;;;5.60;1.00;;;;;;4980173;28;20202;-62
2022/03/19 01:10:58;;;;;;;17.40;9.93;;;5.50;1.00;;;;;;4979781;28;20252;-62
2022/03/19 01:13:26;;;;;;;16.90;10.10;;;5.50;1.00;;;;;;4981304;28;20194;-62
2022/03/19 01:15:53;;;;;;;15.30;10.17;;;5.50;1.00;;;;;;4981446;28;20229;-62
2022/03/19 01:18:20;;;;;;;15.50;10.83;;;5.50;1.00;;;;;;4962980;28;20225;-61
2022/03/19 01:20:47;;;;;;;21.57;10.73;;;5.50;1.00;;;;;;4979197;28;20208;-61
2022/03/19 01:23:14;;;;;;;16.13;9.43;;;5.40;1.00;;;;;;4981196;28;20237;-62
2022/03/19 01:25:41;;;;;;;16.50;10.53;;;5.30;1.00;;;;;;4995437;28;20280;-62
2022/03/19 01:28:08;;;;;;;20.43;10.53;;;5.40;1.00;;;;;;4992089;28;20205;-62
2022/03/19 01:30:35;;;;;;;18.43;10.20;;;5.30;1.00;;;;;;4995861;28;20293;-61
2022/03/19 01:33:02;;;;;;;24.23;10.00;;;5.30;1.00;;;;;;4993802;28;20724;-61
2022/03/19 01:35:32;;;;;;;16.27;9.70;;;5.30;1.00;;;;;;4994871;28;20309;-61
2022/03/19 01:37:59;;;;;;;18.53;10.43;;;5.30;1.00;;;;;;4979488;28;20194;-62
2022/03/19 01:40:26;;;;;;;14.40;9.23;;;5.30;1.00;;;;;;4979560;28;20233;-61
2022/03/19 01:42:53;;;;;;;16.50;10.20;;;5.30;1.00;;;;;;4968144;28;20266;-62
2022/03/19 01:45:24;;;;;;;15.80;9.87;;;5.20;1.00;;;;;;4980426;28;20198;-62
2022/03/19 01:47:54;;;;;;;18.73;9.03;;;5.00;1.00;;;;;;4979293;28;20198;-63
2022/03/19 01:50:24;;;;;;;16.10;9.43;;;4.90;1.00;;;;;;4983426;28;20256;-63
2022/03/19 01:52:55;;;;;;;17.90;10.67;;;4.90;99.90;;;;;;4985729;28;20296;-63
2022/03/19 01:55:27;;;;;;;14.73;9.53;;;4.90;99.90;;;;;;4978546;28;20321;-62
2022/03/19 01:57:57;;;;;;;15.90;10.60;;;4.80;99.90;;;;;;4994456;28;20288;-62
2022/03/19 02:00:27;;;;;;;16.30;9.57;;;4.80;99.90;;;;;;4994861;28;20549;-62
2022/03/19 02:02:54;;;;;;;18.33;9.30;;;4.80;99.90;;;;;;4978990;28;20665;-62
2022/03/19 02:05:24;;;;;;;13.90;9.53;;;4.80;99.90;;;;;;4979361;28;20615;-63
2022/03/19 02:07:54;;;;;;;13.70;8.87;;;4.80;99.90;;;;;;4984834;28;20562;-62
2022/03/19 02:10:29;;;;;;;16.87;10.00;;;4.80;99.90;;;;;;4984953;28;20630;-61
2022/03/19 02:12:56;;;;;;;15.27;8.73;;;4.80;99.90;;;;;;4985472;28;20286;-62
2022/03/19 02:15:23;;;;;;;17.23;9.07;;;4.90;99.90;;;;;;4994447;28;20272;-61
2022/03/19 02:17:51;;;;;;;15.90;9.43;;;4.80;99.90;;;;;;4993797;28;20234;-62
2022/03/19 02:20:21;;;;;;;19.20;9.83;;;4.70;99.90;;;;;;4998857;28;20195;-62
2022/03/19 02:25:40;;;;;;;14.20;8.97;;;4.50;99.90;;;;;;4998702;28;20261;-62
2022/03/19 02:28:07;;;;;;;14.50;9.43;;;4.50;1.00;;;;;;4980518;28;20276;-62
2022/03/19 02:30:39;;;;;;;15.03;9.87;;;4.40;1.00;;;;;;4973728;28;20300;-62
2022/03/19 02:33:08;;;;;;;15.90;9.73;;;4.30;1.00;;;;;;4977012;28;20715;-62
2022/03/19 02:35:35;;;;;;;14.23;10.50;;;4.30;1.00;;;;;;4983410;28;20300;-62
2022/03/19 02:38:02;;;;;;;17.73;10.00;;;4.20;1.00;;;;;;4995333;28;20217;-62
2022/03/19 02:40:29;;;;;;;16.83;9.40;;;4.10;1.00;;;;;;4988451;28;20202;-62
2022/03/19 02:42:56;;;;;;;15.50;9.83;;;4.20;1.00;;;;;;4971297;28;20244;-62
2022/03/19 02:45:24;;;;;;;15.23;10.30;;;4.10;1.00;;;;;;4982287;28;21552;-62
2022/03/19 02:47:57;;;;;;;15.10;9.30;;;4.00;1.00;;;;;;4988766;28;20210;-62
2022/03/19 02:50:36;;;;;;;16.23;9.23;;;3.90;1.00;;;;;;4997486;28;20634;-62
2022/03/19 02:53:09;;;;;;;12.87;9.43;;;4.00;1.00;;;;;;4997987;28;20694;-62
2022/03/19 02:55:41;;;;;;;18.30;9.80;;;4.00;1.00;;;;;;4986745;28;20727;-62
2022/03/19 02:58:09;;;;;;;14.43;10.80;;;3.90;25.80;;;;;;4996545;28;20280;-62
2022/03/19 03:00:37;;;;;;;14.83;10.20;;;4.10;99.90;;;;;;4982517;28;20194;-62
2022/03/19 03:03:04;;;;;;;17.83;9.60;;;4.10;49.10;;;;;;4989553;28;20216;-62
2022/03/19 03:05:33;;;;;;;16.10;10.37;;;3.90;22.10;;;;;;4982598;28;20212;-62
2022/03/19 03:08:01;;;;;;;14.83;9.87;;;3.90;1.00;;;;;;4994005;28;20248;-62
2022/03/19 03:10:30;;;;;;;10.97;9.20;;;3.90;99.90;;;;;;4998327;28;20289;-62
2022/03/19 03:12:58;;;;;;;18.13;9.87;;;3.90;1.00;;;;;;4979604;28;20289;-63
2022/03/19 03:15:26;;;;;;;16.90;9.57;;;3.70;1.00;;;;;;4998777;28;20222;-61
2022/03/19 03:17:54;;;;;;;14.13;9.37;;;3.70;1.00;;;;;;4988515;28;20221;-62
2022/03/19 03:20:21;;;;;;;13.83;9.13;;;3.60;1.00;;;;;;4998285;28;20269;-62
2022/03/19 03:22:48;;;;;;;13.43;9.03;;;3.50;1.00;;;;;;4981769;28;20333;-62
2022/03/19 03:25:15;;;;;;;20.70;10.43;;;3.50;10.50;;;;;;4995466;28;20647;-63
2022/03/19 03:27:42;;;;;;;19.33;9.83;;;3.50;99.90;;;;;;4981337;28;20206;-62
2022/03/19 03:30:09;;;;;;;19.03;10.63;;;3.50;99.90;;;;;;4988723;28;20213;-62
2022/03/19 03:32:39;;;;;;;15.70;10.07;;;3.50;2.40;;;;;;4983373;28;20197;-62
2022/03/19 03:35:09;;;;;;;14.80;9.83;;;3.40;1.00;;;;;;4997154;28;20233;-61
2022/03/19 03:37:38;;;;;;;15.63;10.17;;;3.30;1.00;;;;;;4982780;28;20509;-62
2022/03/19 03:40:07;;;;;;;15.27;9.83;;;3.30;1.00;;;;;;4979949;28;20225;-62
2022/03/19 03:42:41;;;;;;;16.87;10.37;;;3.30;99.90;;;;;;4977483;28;20321;-62
2022/03/19 03:45:10;;;;;;;18.47;10.97;;;3.40;1.00;;;;;;4996421;28;20261;-62
2022/03/19 03:47:39;;;;;;;18.50;11.27;;;3.50;1.00;;;;;;4979633;28;20198;-62
2022/03/19 03:50:06;;;;;;;16.30;11.20;;;3.50;1.00;;;;;;4980331;28;20692;-61
2022/03/19 03:52:33;;;;;;;17.87;10.77;;;3.20;1.00;;;;;;4987053;28;20202;-64
2022/03/19 03:55:00;;;;;;;18.47;10.37;;;3.40;1.00;;;;;;4996376;28;20621;-62
2022/03/19 03:57:27;;;;;;;15.33;10.67;;;3.30;1.00;;;;;;4981194;28;20205;-61
2022/03/19 03:59:54;;;;;;;18.90;10.87;;;3.20;99.90;;;;;;4996507;28;20684;-61
2022/03/19 04:02:23;;;;;;;15.80;10.03;;;3.20;99.90;;;;;;4981243;28;20870;-62
2022/03/19 04:04:50;;;;;;;15.87;9.80;;;3.00;99.90;;;;;;4982779;28;20201;-62
2022/03/19 04:07:20;;;;;;;17.23;10.83;;;3.00;99.90;;;;;;4988966;28;20269;-62
2022/03/19 04:09:47;;;;;;;15.50;10.40;;;3.00;99.90;;;;;;4994886;28;20297;-62
2022/03/19 04:12:16;;;;;;;14.93;10.27;;;3.00;99.90;;;;;;4988034;28;20208;-62
2022/03/19 04:14:43;;;;;;;15.33;9.63;;;2.90;99.90;;;;;;4987522;28;20321;-62
2022/03/19 04:17:10;;;;;;;13.53;10.10;;;2.90;99.90;;;;;;4987112;28;20308;-63
2022/03/19 04:19:37;;;;;;;16.13;10.20;;;2.90;99.90;;;;;;4982399;28;20206;-62
2022/03/19 04:22:04;;;;;;;17.87;10.77;;;2.90;99.90;;;;;;4983547;28;20202;-61
2022/03/19 04:24:34;;;;;;;19.50;10.33;;;2.90;36.90;;;;;;4980453;28;20226;-61
2022/03/19 04:27:01;;;;;;;13.57;9.67;;;2.90;1.00;;;;;;4996297;28;20394;-61
2022/03/19 04:29:27;;;;;;;19.53;9.80;;;2.80;1.00;;;;;;4980333;28;20621;-63
2022/03/19 04:31:55;;;;;;;18.63;10.40;;;2.80;1.00;;;;;;4995530;28;20209;-62
2022/03/19 04:34:23;;;;;;;16.60;10.83;;;2.80;1.00;;;;;;4971102;28;20292;-62
2022/03/19 04:36:53;;;;;;;18.07;9.63;;;2.70;1.00;;;;;;4995416;28;20321;-62
2022/03/19 04:39:20;;;;;;;19.70;10.90;;;2.70;1.00;;;;;;4980492;28;20206;-62
2022/03/19 04:41:47;;;;;;;17.77;10.60;;;2.70;1.00;;;;;;4977096;28;20253;-62
2022/03/19 04:44:16;;;;;;;24.70;12.43;;;2.70;1.00;;;;;;4986080;28;20316;-62
2022/03/19 04:46:45;;;;;;;21.63;13.23;;;2.60;1.00;;;;;;4969845;28;20221;-62
2022/03/19 04:49:15;;;;;;;23.73;13.03;;;2.60;1.00;;;;;;4973031;28;20214;-62
2022/03/19 04:51:42;;;;;;;23.93;12.83;;;2.50;1.00;;;;;;4980979;28;20632;-64
2022/03/19 04:54:10;;;;;;;20.70;12.77;;;2.60;1.00;;;;;;4986344;28;20244;-62
2022/03/19 04:56:37;;;;;;;22.20;12.03;;;2.50;1.00;;;;;;4976486;28;20230;-62
2022/03/19 04:59:04;;;;;;;22.63;12.93;;;2.50;1.00;;;;;;4986296;28;20209;-62
2022/03/19 05:01:34;;;;;;;22.83;13.23;;;2.50;1.00;;;;;;4985730;28;20560;-63
2022/03/19 05:04:02;;;;;;;19.80;13.77;;;2.40;1.00;;;;;;4995451;28;20208;-63
2022/03/19 05:06:29;;;;;;;23.23;13.83;;;2.40;1.00;;;;;;4995109;28;20205;-63
2022/03/19 05:11:41;;;;;;;22.63;12.90;;;2.40;1.00;;;;;;4993860;28;20225;-63
2022/03/19 05:14:11;;;;;;;19.50;12.17;;;2.30;1.00;;;;;;4984159;28;20233;-63
2022/03/19 05:16:40;;;;;;;24.63;13.53;;;2.30;1.00;;;;;;4996557;28;20229;-62
2022/03/19 05:19:10;;;;;;;19.10;12.43;;;2.30;1.00;;;;;;4998156;28;20582;-63
2022/03/19 05:21:40;;;;;;;21.57;12.97;;;2.20;1.00;;;;;;4996166;28;20676;-64
2022/03/19 05:24:07;;;;;;;20.13;13.03;;;2.20;99.90;;;;;;4978754;28;20267;-63
2022/03/19 05:26:38;;;;;;;22.83;13.67;;;2.30;99.90;;;;;;4983319;28;20431;-65
2022/03/19 05:29:05;;;;;;;20.87;13.23;;;2.30;99.90;;;;;;4979771;28;20289;-64
2022/03/19 05:31:39;;;;;;;21.17;13.13;;;2.30;99.90;;;;;;4994241;28;20198;-65
2022/03/19 05:36:54;;;;;;;21.83;13.17;;;2.20;1.00;;;;;;4986253;28;20624;-64
2022/03/19 05:39:21;;;;;;;16.87;12.23;;;2.20;99.90;;;;;;4986429;28;20557;-63
2022/03/19 05:41:48;;;;;;;18.20;12.60;;;2.20;1.00;;;;;;4978959;28;20612;-63
2022/03/19 05:44:15;;;;;;;23.77;13.57;;;2.20;99.90;;;;;;4969702;28;20195;-64
2022/03/19 05:46:45;;;;;;;23.37;13.80;;;2.40;1.00;;;;;;5013211;28;20308;-64
2022/03/19 05:49:12;;;;;;;21.70;12.60;;;2.50;1.00;;;;;;4991684;28;20539;-62
2022/03/19 05:51:39;;;;;;;25.53;15.10;;;2.70;99.90;;;;;;4980103;28;20285;-62
2022/03/19 05:54:10;;;;;;;24.53;12.90;;;2.90;99.90;;;;;;4961039;28;20205;-62
2022/03/19 05:56:38;;;;;;;21.07;13.57;;;3.00;99.90;;;;;;4984366;28;20214;-62
2022/03/19 05:59:07;;;;;;;28.37;13.63;;;3.10;1.00;;;;;;4995268;28;20198;-61
2022/03/19 06:01:35;;;;;;;21.03;12.40;;;3.30;1.00;;;;;;4984565;28;20224;-62
2022/03/19 06:04:05;;;;;;;23.63;11.90;;;3.50;1.00;;;;;;4980225;28;20194;-61
2022/03/19 06:06:32;;;;;;;25.13;12.47;;;3.60;1.00;;;;;;4986013;28;20217;-64
2022/03/19 06:08:59;;;;;;;18.47;11.83;;;4.50;48.70;;;;;;4993827;28;20248;-62
2022/03/19 06:11:26;;;;;;;18.80;9.87;;;5.90;1.00;;;;;;4978861;28;20232;-62
2022/03/19 06:13:56;;;;;;;18.43;8.93;;;6.90;1.00;;;;;;4979439;28;20206;-61
2022/03/19 06:16:26;;;;;;;17.47;8.10;;;7.50;1.00;;;;;;4978994;28;20704;-62
2022/03/19 06:18:53;;;;;;;19.33;8.37;;;8.20;99.90;;;;;;4995557;28;20189;-61
2022/03/19 06:21:22;;;;;;;20.33;8.23;;;8.50;99.90;;;;;;4986597;28;20206;-63
2022/03/19 06:23:50;;;;;;;15.37;7.47;;;8.80;99.90;;;;;;4980583;28;20256;-64
2022/03/19 06:26:23;;;;;;;12.50;7.40;;;9.30;6.50;;;;;;4979908;28;20206;-62
2022/03/19 06:28:50;;;;;;;13.57;7.97;;;9.00;49.90;;;;;;4980565;28;20593;-63
2022/03/19 06:31:17;;;;;;;15.63;8.90;;;9.00;75.40;;;;;;4980312;28;20210;-64
2022/03/19 06:33:44;;;;;;;17.63;8.30;;;9.60;1.00;;;;;;4995533;28;20256;-63
2022/03/19 06:39:06;;;;;;;16.83;8.17;;;10.20;1.00;;;;;;4995762;28;20202;-62
2022/03/19 06:41:34;;;;;;;15.10;7.57;;;10.80;1.00;;;;;;4979436;28;20279;-62
2022/03/19 06:44:01;;;;;;;16.03;7.97;;;11.20;99.90;;;;;;4994431;28;20245;-62
2022/03/19 06:46:28;;;;;;;14.97;7.00;;;11.80;99.90;;;;;;4978980;28;20713;-63
2022/03/19 06:48:55;;;;;;;13.33;7.33;;;12.60;20.20;;;;;;4983416;28;20199;-64
2022/03/19 06:51:22;;;;;;;12.23;7.70;;;12.70;1.00;;;;;;4979259;28;20221;-63
2022/03/19 06:53:49;;;;;;;15.10;7.37;;;13.00;1.00;;;;;;4979130;28;20273;-64
2022/03/19 06:56:19;;;;;;;14.10;7.03;;;12.70;1.00;;;;;;4994997;28;20273;-64
2022/03/19 06:58:47;;;;;;;13.43;6.73;;;12.90;1.00;;;;;;4984997;28;20194;-64
2022/03/19 07:01:16;;;;;;;16.07;7.33;;;13.10;1.00;;;;;;4995271;28;20290;-64
2022/03/19 07:03:45;;;;;;;11.40;6.63;;;13.80;1.00;;;;;;4968932;28;20293;-63
2022/03/19 07:06:15;;;;;;;14.67;6.70;;;13.90;1.00;;;;;;4983007;28;20208;-63
2022/03/19 07:09:05;;;;;;;14.50;6.47;;;13.50;1.00;;;;;;4981149;28;20660;-62
2022/03/19 07:11:35;;;;;;;14.83;7.03;;;13.70;1.00;;;;;;4996647;28;20197;-62
2022/03/19 07:14:05;;;;;;;11.77;6.10;;;14.00;1.00;;;;;;4986050;28;20735;-63
2022/03/19 07:16:32;;;;;;;13.13;6.20;;;14.20;1.00;;;;;;4974130;28;20308;-63
2022/03/19 07:19:02;;;;;;;16.93;6.93;;;14.40;1.00;;;;;;5000465;28;20229;-63
2022/03/19 07:21:29;;;;;;;12.07;6.33;;;15.30;1.00;;;;;;4984706;28;20193;-63
2022/03/19 07:23:55;;;;;;;15.47;6.50;;;15.70;1.00;;;;;;4983106;28;20226;-63
2022/03/19 07:26:26;;;;;;;11.18;6.00;;;16.70;1.00;;;;;;4997763;28;20198;-64
2022/03/19 07:28:53;;;;;;;10.40;5.40;;;16.40;1.00;;;;;;4983117;28;20225;-64
2022/03/19 07:31:21;;;;;;;15.97;7.00;;;16.10;1.00;;;;;;4999409;28;20850;-63
2022/03/19 07:33:50;;;;;;;14.37;6.73;;;16.10;1.00;;;;;;4984345;28;20590;-63
2022/03/19 07:36:20;;;;;;;14.35;6.20;;;17.10;1.00;;;;;;4997993;28;20287;-63
2022/03/19 07:38:47;;;;;;;9.85;5.85;;;17.10;99.90;;;;;;4984109;28;20238;-63
2022/03/19 07:44:04;;;;;;;9.13;5.30;;;18.00;99.90;;;;;;4996888;28;20334;-64
2022/03/19 07:46:35;;;;;;;11.20;5.38;;;17.10;99.90;;;;;;4988493;28;20232;-63
2022/03/19 07:49:03;;;;;;;10.20;5.10;;;17.50;99.90;;;;;;4981955;28;20229;-63
2022/03/19 07:51:30;;;;;;;9.45;5.32;;;18.10;99.90;;;;;;4955975;28;20201;-62
2022/03/19 07:53:58;;;;;;;10.88;4.60;;;18.80;99.90;;;;;;4998902;28;20210;-64
2022/03/19 07:56:25;;;;;;;11.80;4.68;;;19.10;99.90;;;;;;4988867;28;20297;-66
2022/03/19 07:58:52;;;;;;;8.95;4.68;;;18.40;99.90;;;;;;4983444;28;20277;-64
2022/03/19 08:01:20;;;;;;;9.65;4.68;;;18.90;99.90;;;;;;4988061;28;20684;-63
2022/03/19 08:03:48;;;;;;;8.65;4.60;;;20.00;99.90;;;;;;4996267;28;20197;-64
2022/03/19 08:06:16;;;;;;;10.50;5.20;;;20.70;99.90;;;;;;4987554;28;20706;-63
2022/03/19 08:08:45;;;;;;;15.07;4.65;;;19.70;99.90;;;;;;4987309;28;20318;-63
2022/03/19 08:11:14;;;;;;;10.35;4.03;;;18.70;99.90;;;;;;4998890;28;20267;-63
2022/03/19 08:13:41;;;;;;;8.13;4.07;;;19.70;99.90;;;;;;4995632;28;20206;-63
2022/03/19 08:16:08;;;;;;;9.80;4.68;;;19.90;99.90;;;;;;4986676;28;20575;-62
2022/03/19 08:18:36;;;;;;;10.38;4.10;;;19.20;99.90;;;;;;4983022;28;20626;-63
2022/03/19 08:21:05;;;;;;;8.30;4.00;;;18.80;99.90;;;;;;4984075;28;20605;-63
2022/03/19 08:23:34;;;;;;;7.45;3.75;;;18.40;99.90;;;;;;4998595;28;20320;-63
2022/03/19 08:26:01;;;;;;;10.38;4.45;;;17.90;99.90;;;;;;4983330;28;20280;-63
2022/03/19 08:28:28;;;;;;;6.80;3.70;;;19.30;99.90;;;;;;4982708;28;20198;-63
2022/03/19 08:30:55;;;;;;;7.45;3.80;;;18.30;99.90;;;;;;4982961;28;20198;-64
2022/03/19 08:33:22;;;;;;;7.55;3.92;;;19.60;99.90;;;;;;4988690;28;20272;-63
2022/03/19 08:35:49;;;;;;;8.05;3.55;;;20.70;99.90;;;;;;4985104;28;20235;-62
2022/03/19 08:41:04;;;;;;;8.23;3.25;;;22.00;99.90;;;;;;4982803;28;20248;-62
2022/03/19 08:43:35;;;;;;;9.35;3.67;;;19.90;99.90;;;;;;4996373;28;20236;-62
2022/03/19 08:46:05;;;;;;;7.22;3.28;;;20.50;99.90;;;;;;4982908;28;20723;-63
2022/03/19 08:48:35;;;;;;;8.57;3.65;;;21.00;99.90;;;;;;4996021;28;20194;-63
2022/03/19 08:53:49;;;;;;;8.23;3.60;;;16.80;99.90;;;;;;4987836;28;20681;-62
2022/03/19 08:56:16;;;;;;;5.85;2.72;;;14.10;99.90;;;;;;4981974;28;20204;-64
2022/03/19 08:58:43;;;;;;;6.72;2.85;;;13.20;99.90;;;;;;4987632;28;20194;-63
2022/03/19 09:01:12;;;;;;;6.70;2.58;;;16.20;99.90;;;;;;4975966;28;20285;-62
2022/03/19 09:03:40;;;;;;;5.38;2.17;;;18.50;99.90;;;;;;4986744;28;20201;-63
2022/03/19 09:06:10;;;;;;;5.15;2.28;;;18.40;99.90;;;;;;4996128;28;20195;-63
2022/03/19 09:08:39;;;;;;;9.32;2.60;;;20.30;99.90;;;;;;4980380;28;20230;-62
2022/03/19 09:11:06;;;;;;;6.05;2.40;;;19.60;99.90;;;;;;4982985;28;20206;-62
2022/03/19 09:13:33;;;;;;;8.25;2.40;;;20.30;99.90;;;;;;4987998;28;20533;-62
2022/03/19 09:16:00;;;;;;;4.57;1.95;;;21.10;99.90;;;;;;4995226;28;20237;-62
2022/03/19 09:18:27;;;;;;;7.45;3.08;;;20.30;99.90;;;;;;4978695;28;20218;-63
2022/03/19 09:20:54;;;;;;;4.30;2.30;;;21.20;99.90;;;;;;4980786;28;20204;-63
2022/03/19 09:23:23;;;;;;;3.47;2.05;;;21.70;99.90;;;;;;4986026;28;20741;-62
2022/03/19 09:25:50;;;;;;;5.68;2.33;;;22.80;99.90;;;;;;4985845;28;20218;-62
2022/03/19 09:28:17;;;;;;;5.68;2.50;;;21.00;99.90;;;;;;4993636;28;20648;-62
2022/03/19 09:30:45;;;;;;;5.85;2.67;;;21.30;99.90;;;;;;4996073;28;21305;-63
2022/03/19 09:33:14;;;;;;;6.25;2.67;;;23.30;99.90;;;;;;4986015;28;20229;-62
2022/03/19 09:35:49;;;;;;;9.18;3.55;;;23.20;99.90;;;;;;4998699;28;20260;-63
2022/03/19 09:38:19;;;;;;;6.97;2.75;;;22.70;99.90;;;;;;4986640;28;20561;-64
2022/03/19 09:40:46;;;;;;;7.70;3.10;;;22.80;99.90;;;;;;4980869;28;20206;-63
2022/03/19 09:43:13;;;;;;;6.57;2.80;;;21.90;99.90;;;;;;4984593;28;20236;-61
2022/03/19 09:45:43;;;;;;;6.15;3.17;;;23.40;99.90;;;;;;4986786;28;20735;-62
2022/03/19 09:48:10;;;;;;;9.57;3.42;;;24.40;99.90;;;;;;4993193;28;20219;-63
2022/03/19 09:50:38;;;;;;;7.50;2.80;;;26.00;99.90;;;;;;4983754;28;20213;-63
2022/03/19 09:53:06;;;;;;;7.95;2.88;;;25.70;99.90;;;;;;4995277;28;20220;-62
2022/03/19 09:55:38;;;;;;;6.50;2.47;;;24.90;99.90;;;;;;4983121;28;20211;-62
2022/03/19 09:58:05;;;;;;;6.90;2.50;;;23.00;99.90;;;;;;4996504;28;20688;-62
2022/03/19 10:00:35;;;;;;;5.93;2.70;;;23.50;99.90;;;;;;4964155;28;20650;-63
2022/03/19 10:03:06;;;;;;;7.28;2.80;;;23.30;99.90;;;;;;4970583;28;20204;-63
2022/03/19 10:08:37;;;;;;;6.25;2.72;;;22.80;99.90;;;;;;4986035;28;20229;-62
2022/03/19 10:11:04;;;;;;;8.77;2.88;;;21.60;99.90;;;;;;4982066;28;20203;-62
2022/03/19 10:13:31;;;;;;;7.03;2.75;;;21.80;99.90;;;;;;4982726;28;20641;-62
2022/03/19 10:16:02;;;;;;;4.78;2.47;;;22.40;99.90;;;;;;4970843;28;20280;-62
2022/03/19 10:18:32;;;;;;;6.97;2.67;;;22.70;99.90;;;;;;4981898;28;20245;-62
2022/03/19 10:21:12;;;;;;;10.13;3.03;;;22.30;99.90;;;;;;4987467;28;20232;-62
2022/03/19 10:23:41;;;;;;;6.53;2.35;;;23.10;99.90;;;;;;4998530;28;20241;-63
2022/03/19 10:26:29;;;;;;;4.10;2.00;;;24.00;99.90;;;;;;4999476;28;20228;-62
2022/03/19 10:28:57;;;;;;;5.72;2.55;;;22.50;99.90;;;;;;4996279;28;20757;-62
2022/03/19 10:31:37;;;;;;;6.13;1.95;;;23.40;99.90;;;;;;4997652;28;20247;-62
2022/03/19 10:34:06;;;;;;;6.55;2.00;;;22.80;99.90;;;;;;4981159;28;20190;-62
2022/03/19 10:36:41;;;;;;;4.88;1.98;;;22.30;99.90;;;;;;4970305;28;20662;-62
2022/03/19 10:39:28;;;;;;;4.57;2.08;;;22.30;99.90;;;;;;4981635;28;20301;-62
2022/03/19 10:42:00;;;;;;;4.25;2.08;;;22.80;99.90;;;;;;4987018;28;20273;-62
2022/03/19 10:44:28;;;;;;;6.10;2.30;;;20.20;99.90;;;;;;4972271;28;20202;-62
2022/03/19 10:47:02;;;;;;;6.13;1.77;;;20.70;99.90;;;;;;4998829;28;20202;-62
2022/03/19 10:49:31;;;;;;;5.72;1.88;;;22.80;99.90;;;;;;4985330;28;20257;-62
2022/03/19 10:52:02;;;;;;;4.60;1.90;;;20.80;99.90;;;;;;5001211;28;20229;-63
2022/03/19 10:54:30;;;;;;;3.22;1.40;;;19.70;99.90;;;;;;4984104;28;20696;-62
2022/03/19 10:56:57;;;;;;;5.20;1.63;;;19.80;99.90;;;;;;4999740;28;20225;-62
2022/03/19 10:59:27;;;;;;;3.70;1.77;;;20.60;99.90;;;;;;4970333;28;20663;-62
2022/03/19 11:01:55;;;;;;;5.25;1.80;;;20.40;99.90;;;;;;4978936;28;20268;-62
2022/03/19 11:04:24;;;;;;;4.65;1.50;;;21.20;99.90;;;;;;4978170;28;20197;-62
2022/03/19 11:06:52;;;;;;;3.75;1.63;;;20.00;99.90;;;;;;4984147;28;20189;-62
2022/03/19 11:09:22;;;;;;;3.03;1.70;;;20.70;99.90;;;;;;4988348;28;20253;-62
2022/03/19 11:12:00;;;;;;;5.38;1.90;;;20.90;99.90;;;;;;4983807;28;20640;-62
2022/03/19 11:14:31;;;;;;;3.70;2.13;;;19.50;99.90;;;;;;4996868;28;20220;-63
2022/03/19 11:17:25;;;;;;;4.82;2.00;;;17.80;99.90;;;;;;4983639;28;20214;-62
2022/03/19 11:20:04;;;;;;;3.97;2.05;;;19.40;99.90;;;;;;4998753;28;20197;-62
2022/03/19 11:22:41;;;;;;;6.28;2.22;;;20.10;99.90;;;;;;4998610;28;20284;-62
2022/03/19 11:25:20;;;;;;;4.53;2.08;;;19.50;99.90;;;;;;4998674;28;20711;-63
2022/03/19 11:27:52;;;;;;;4.78;2.08;;;19.40;99.90;;;;;;4988115;28;20598;-62
2022/03/19 11:30:22;;;;;;;6.15;2.70;;;18.00;99.90;;;;;;4997159;28;20298;-61
2022/03/19 11:33:02;;;;;;;5.97;2.50;;;17.30;99.90;;;;;;4997638;28;20229;-61
2022/03/19 11:35:34;;;;;;;5.78;2.50;;;17.70;99.90;;;;;;4996583;28;20197;-62
2022/03/19 11:38:11;;;;;;;9.15;2.55;;;17.80;99.90;;;;;;4979232;28;20209;-62
2022/03/19 11:40:43;;;;;;;6.22;3.00;;;17.20;99.90;;;;;;4983373;28;20209;-62
2022/03/19 11:43:24;;;;;;;4.82;2.00;;;16.90;99.90;;;;;;4998037;28;20243;-62
2022/03/19 11:46:13;;;;;;;7.25;2.40;;;17.20;99.90;;;;;;4983516;28;20206;-63
2022/03/19 11:48:46;;;;;;;7.07;2.35;;;17.60;99.90;;;;;;4998031;28;20202;-62
2022/03/19 11:51:25;;;;;;;4.45;2.13;;;17.30;99.90;;;;;;4981207;28;20634;-62
2022/03/19 11:54:12;;;;;;;4.07;2.05;;;17.80;99.90;;;;;;4997432;28;20214;-64
2022/03/19 11:56:39;;;;;;;4.43;2.10;;;16.50;99.90;;;;;;4989829;28;20205;-63
2022/03/19 11:59:18;;;;;;;4.38;1.85;;;16.20;99.90;;;;;;4995345;28;20222;-62
2022/03/19 12:01:48;;;;;;;4.68;2.03;;;16.80;99.90;;;;;;4982434;28;20193;-62
2022/03/19 12:04:21;;;;;;;4.93;2.35;;;17.10;99.90;;;;;;4985464;28;20190;-63
2022/03/19 12:06:56;;;;;;;3.10;1.67;;;17.80;99.90;;;;;;4977637;28;20199;-62
2022/03/19 12:09:52;;;;;;;6.00;2.95;;;17.10;99.90;;;;;;4983095;28;20292;-62
2022/03/19 12:12:24;;;;;;;3.88;1.70;;;16.70;99.90;;;;;;4997166;28;20297;-62
2022/03/19 12:14:56;;;;;;;5.18;1.73;;;16.40;99.90;;;;;;4983999;28;21107;-62
2022/03/19 12:17:30;;;;;;;3.97;1.70;;;15.70;99.90;;;;;;4996682;28;20214;-62
2022/03/19 12:20:02;;;;;;;3.72;1.55;;;15.60;99.90;;;;;;4981224;28;20300;-63
2022/03/19 12:22:37;;;;;;;4.68;2.10;;;15.10;99.90;;;;;;4994804;28;20248;-62
2022/03/19 12:25:30;;;;;;;3.10;1.70;;;15.30;99.90;;;;;;4979315;28;20233;-63
2022/03/19 12:27:57;;;;;;;3.70;1.58;;;15.30;99.90;;;;;;4981148;28;20633;-62
2022/03/19 12:30:27;;;;;;;2.50;1.70;;;15.00;99.90;;;;;;4987427;28;20328;-64
2022/03/19 12:32:58;;;;;;;4.07;1.93;;;14.70;99.90;;;;;;4996236;28;20301;-63
2022/03/19 12:35:37;;;;;;;2.88;1.52;;;14.90;99.90;;;;;;4982215;28;20229;-62
2022/03/19 12:38:05;;;;;;;4.03;1.50;;;15.30;99.90;;;;;;4979592;28;20232;-62
2022/03/19 12:43:34;;;;;;;3.63;1.53;;;15.00;99.90;;;;;;4986116;28;20226;-62
2022/03/19 12:46:01;;;;;;;3.37;2.00;;;14.90;99.90;;;;;;4979873;28;20197;-62
2022/03/19 12:48:31;;;;;;;4.87;1.80;;;15.00;99.90;;;;;;4986761;28;20300;-62
2022/03/19 12:50:59;;;;;;;2.53;1.40;;;14.90;99.90;;;;;;4985473;28;20189;-62
2022/03/19 12:53:38;;;;;;;5.93;2.00;;;14.20;99.90;;;;;;4981774;28;20567;-62
2022/03/19 12:56:26;;;;;;;4.47;1.90;;;14.10;99.90;;;;;;4986081;28;20197;-62
2022/03/19 12:58:58;;;;;;;8.40;1.70;;;14.00;99.90;;;;;;4995296;28;20839;-62
2022/03/19 13:01:28;;;;;;;3.13;1.67;;;13.80;99.90;;;;;;4981258;28;20221;-62
2022/03/19 13:04:01;;;;;;;5.70;1.77;;;13.50;99.90;;;;;;4980757;28;20194;-62
2022/03/19 13:06:36;;;;;;;5.50;1.93;;;13.50;99.90;;;;;;4979653;28;20274;-62
2022/03/19 13:09:08;;;;;;;4.73;1.90;;;13.70;99.90;;;;;;4977008;28;20706;-62
2022/03/19 13:11:49;;;;;;;3.87;1.80;;;13.50;99.90;;;;;;4971973;28;20263;-62
2022/03/19 13:14:19;;;;;;;3.13;1.80;;;13.10;99.90;;;;;;4997279;28;20186;-62
2022/03/19 13:16:55;;;;;;;4.77;2.30;;;12.90;99.90;;;;;;4996120;28;20317;-62
2022/03/19 13:19:29;;;;;;;5.47;2.40;;;12.60;99.90;;;;;;4995012;28;20583;-62
2022/03/19 13:21:58;;;;;;;4.63;2.40;;;12.80;99.90;;;;;;4994404;28;20200;-63
2022/03/19 13:24:26;;;;;;;6.03;2.53;;;12.90;99.90;;;;;;4968190;28;20276;-63
2022/03/19 13:26:55;;;;;;;5.70;2.20;;;13.00;99.90;;;;;;4992785;28;20258;-62